Latest Weather Observations for Sydney Harbour

IDN60901

Issued at 3:21 pm EDT Saturday 29 February 2020 (issued every 10 minutes, with the page automatically refreshed every 10 minutes)

About weather observations | Map of Sydney area stations | Latest observations for Sydney area | Other Formats
Station Details ID: 066196 Name: WEDDING CAKE WEST Lat: -33.84 Lon: 151.26 Height: 6.0 m
Data from the previous 72 hours. | See also: Recent months at Sydney Harbour
Date/Time
EDT
Temp
°C
App
Temp
°C
Dew
Point
°C
Rel
Hum
%
Delta-T
°C
Wind Press
QNH
hPa
Press
MSL
hPa
Rain since
9am
mm
Dir  Spd
km/h
Gust
km/h
Spd
kts
Gust
kts
29/03:00pm 22.9 - - - - ENE 22 26 12 14 - - -
29/02:30pm 23.0 - - - - ENE 22 26 12 14 - - -
29/02:00pm 22.9 - - - - ENE 20 24 11 13 - - -
29/01:30pm 22.8 - - - - ENE 20 22 11 12 - - -
29/01:00pm 22.6 - - - - ENE 17 20 9 11 - - -
29/12:30pm 22.8 - - - - ENE 15 20 8 11 - - -
29/12:00pm 23.1 - - - - ENE 17 20 9 11 - - -
29/11:30am 23.0 - - - - ENE 15 22 8 12 - - -
29/11:00am 22.7 - - - - NE 11 13 6 7 - - -
29/10:30am 22.6 - - - - SSW 6 7 3 4 - - -
29/10:00am 21.5 - - - - SSW 9 11 5 6 - - -
29/09:30am 21.3 - - - - SW 7 9 4 5 - - -
29/09:00am 20.6 - - - - WSW 11 13 6 7 - - -
29/08:30am 20.7 - - - - W 13 15 7 8 - - -
29/08:00am 20.2 - - - - W 13 15 7 8 - - -
29/07:30am 20.1 - - - - W 13 13 7 7 - - -
29/07:00am 20.5 - - - - SW 9 13 5 7 - - -
29/06:30am 20.0 - - - - WSW 11 17 6 9 - - -
29/06:00am 20.1 - - - - WSW 13 15 7 8 - - -
29/05:30am 19.9 - - - - WSW 9 13 5 7 - - -
29/05:00am 20.3 - - - - WSW 13 17 7 9 - - -
29/04:30am 20.3 - - - - SSW 13 17 7 9 - - -
29/04:00am 20.1 - - - - SW 13 15 7 8 - - -
29/03:30am 20.3 - - - - SW 15 17 8 9 - - -
29/03:00am 20.2 - - - - SW 13 15 7 8 - - -
29/02:30am 20.3 - - - - SW 15 17 8 9 - - -
29/02:00am 20.4 - - - - SW 15 17 8 9 - - -
29/01:30am 20.8 - - - - SW 15 17 8 9 - - -
29/01:00am 20.9 - - - - WSW 13 15 7 8 - - -
29/12:30am 21.7 - - - - SSE 11 15 6 8 - - -
29/12:00am 21.8 - - - - SE 11 15 6 8 - - -
 
Date/Time
EDT
Temp
°C
App
Temp
°C
Dew
Point
°C
Rel
Hum
%
Delta-T
°C
Wind Press
QNH
hPa
Press
MSL
hPa
Rain since
9am
mm
Dir  Spd
km/h
Gust
km/h
Spd
kts
Gust
kts
28/11:30pm 21.7 - - - - SE 15 19 8 10 - - -
28/11:00pm 21.6 - - - - SSE 13 19 7 10 - - -
28/10:30pm 21.5 - - - - SSE 11 15 6 8 - - -
28/10:00pm 21.5 - - - - SSE 15 19 8 10 - - -
28/09:30pm 21.5 - - - - SSE 15 19 8 10 - - -
28/09:00pm 21.5 - - - - SSE 15 20 8 11 - - -
28/08:30pm 21.5 - - - - SSE 19 24 10 13 - - -
28/08:00pm 21.5 - - - - SSE 20 24 11 13 - - -
28/07:30pm 21.5 - - - - SE 22 30 12 16 - - -
28/07:00pm 21.6 - - - - SSE 20 30 11 16 - - -
28/06:30pm 21.9 - - - - SE 24 33 13 18 - - -
28/06:00pm 22.3 - - - - SE 22 32 12 17 - - -
28/05:30pm 22.3 - - - - SE 26 37 14 20 - - -
28/05:00pm 22.6 - - - - SE 26 37 14 20 - - -
28/04:30pm 22.2 - - - - SE 28 37 15 20 - - -
28/04:00pm 22.6 - - - - SSE 28 37 15 20 - - -
28/03:30pm 22.2 - - - - S 32 41 17 22 - - -
28/03:00pm 21.9 - - - - S 30 37 16 20 - - -
28/02:30pm 22.4 - - - - S 28 35 15 19 - - -
28/02:00pm 22.1 - - - - S 28 39 15 21 - - -
28/01:30pm 22.4 - - - - S 28 33 15 18 - - -
28/01:00pm 22.5 - - - - S 28 35 15 19 - - -
28/12:30pm 22.2 - - - - S 24 32 13 17 - - -
28/12:00pm 21.9 - - - - SSW 22 32 12 17 - - -
28/11:30am 22.1 - - - - SW 28 33 15 18 - - -
28/11:00am 22.0 - - - - SSW 26 35 14 19 - - -
28/10:30am 21.6 - - - - S 22 28 12 15 - - -
28/10:00am 21.7 - - - - SSW 24 28 13 15 - - -
28/09:30am 21.3 - - - - SSW 20 28 11 15 - - -
28/09:00am 20.9 - - - - SSW 22 30 12 16 - - -
28/08:30am 20.6 - - - - SSW 22 30 12 16 - - -
28/08:00am 20.2 - - - - SW 19 20 10 11 - - -
28/07:30am 20.1 - - - - SSW 17 20 9 11 - - -
28/07:00am 20.4 - - - - SSW 17 22 9 12 - - -
28/06:30am 21.0 - - - - SSW 20 22 11 12 - - -
28/06:00am 21.9 - - - - SW 32 35 17 19 - - -
28/05:30am 21.2 - - - - SW 22 30 12 16 - - -
28/05:00am 21.1 - - - - SW 15 19 8 10 - - -
28/04:30am 21.0 - - - - WSW 17 22 9 12 - - -
28/04:00am 20.5 - - - - WSW 17 22 9 12 - - -
28/03:30am 20.7 - - - - WSW 17 20 9 11 - - -
28/03:00am 20.8 - - - - WSW 13 15 7 8 - - -
28/02:30am 21.0 - - - - W 9 13 5 7 - - -
28/02:00am 21.1 - - - - W 6 6 3 3 - - -
28/01:30am 21.4 - - - - W 11 13 6 7 - - -
28/01:00am 21.8 - - - - WNW 13 15 7 8 - - -
28/12:30am 21.6 - - - - WNW 7 9 4 5 - - -
28/12:00am 22.1 - - - - NNW 11 15 6 8 - - -
 
Date/Time
EDT
Temp
°C
App
Temp
°C
Dew
Point
°C
Rel
Hum
%
Delta-T
°C
Wind Press
QNH
hPa
Press
MSL
hPa
Rain since
9am
mm
Dir  Spd
km/h
Gust
km/h
Spd
kts
Gust
kts
27/11:30pm 22.6 - - - - NNW 11 15 6 8 - - -
27/11:00pm 22.9 - - - - N 17 22 9 12 - - -
27/10:30pm 22.8 - - - - N 17 20 9 11 - - -
27/10:00pm 22.7 - - - - NNE 19 22 10 12 - - -
27/09:30pm 22.7 - - - - NNE 20 26 11 14 - - -
27/09:00pm 22.7 - - - - NNE 24 32 13 17 - - -
27/08:30pm 22.6 - - - - NNE 26 35 14 19 - - -
27/08:00pm 22.6 - - - - NNE 26 32 14 17 - - -
27/07:30pm 22.6 - - - - NNE 24 30 13 16 - - -
27/07:00pm 22.6 - - - - NE 28 33 15 18 - - -
27/06:30pm 22.6 - - - - NE 28 32 15 17 - - -
27/06:00pm 22.4 - - - - NE 26 32 14 17 - - -
27/05:30pm 22.3 - - - - NE 24 30 13 16 - - -
27/05:00pm 22.2 - - - - NE 28 33 15 18 - - -
27/04:30pm 22.1 - - - - ENE 28 32 15 17 - - -
27/04:00pm 22.2 - - - - NE 26 33 14 18 - - -
27/03:30pm 22.0 - - - - NNE 26 33 14 18 - - -
27/03:00pm 22.0 - - - - NNE 28 33 15 18 - - -
27/02:30pm 21.9 - - - - NNE 26 32 14 17 - - -
27/02:00pm 21.8 - - - - NNE 24 28 13 15 - - -
27/01:30pm 21.9 - - - - NNE 19 22 10 12 - - -
27/01:00pm 22.0 - - - - ENE 15 17 8 9 - - -
27/12:30pm 21.6 - - - - ENE 11 13 6 7 - - -
27/12:00pm 21.7 - - - - ENE 11 13 6 7 - - -
27/11:30am 23.4 - - - - CALM 0 0 0 0 - - -
27/11:00am 21.7 - - - - SW 2 7 1 4 - - -
27/10:30am 21.2 - - - - SSW 6 7 3 4 - - -
27/10:00am 21.2 - - - - SSE 9 13 5 7 - - -
27/09:30am 21.4 - - - - SE 6 7 3 4 - - -
27/09:00am 21.1 - - - - ESE 7 9 4 5 - - -
27/08:30am 20.8 - - - - SE 9 13 5 7 - - -
27/08:00am 20.8 - - - - S 11 15 6 8 - - -
27/07:30am 20.9 - - - - SSE 15 20 8 11 - - -
27/07:00am 20.9 - - - - S 15 17 8 9 - - -
27/06:30am 20.8 - - - - S 17 20 9 11 - - -
27/06:00am 20.8 - - - - S 17 22 9 12 - - -
27/05:30am 20.8 - - - - S 17 24 9 13 - - -
27/05:00am 20.7 - - - - S 19 26 10 14 - - -
27/04:30am 20.7 - - - - S 22 30 12 16 - - -
27/04:00am 20.7 - - - - SSE 19 26 10 14 - - -
27/03:30am 20.7 - - - - SSE 24 32 13 17 - - -
27/03:00am 20.6 - - - - S 26 35 14 19 - - -
27/02:30am 20.5 - - - - S 26 37 14 20 - - -
27/02:00am 20.6 - - - - S 28 35 15 19 - - -
27/01:30am 20.6 - - - - S 24 35 13 19 - - -
27/01:00am 20.7 - - - - S 28 35 15 19 - - -
27/12:30am 20.7 - - - - S 28 41 15 22 - - -
27/12:00am 20.7 - - - - S 30 39 16 21 - - -
 
Date/Time
EDT
Temp
°C
App
Temp
°C
Dew
Point
°C
Rel
Hum
%
Delta-T
°C
Wind Press
QNH
hPa
Press
MSL
hPa
Rain since
9am
mm
Dir  Spd
km/h
Gust
km/h
Spd
kts
Gust
kts
26/11:30pm 20.7 - - - - S 32 46 17 25 - - -
26/11:00pm 20.8 - - - - S 35 48 19 26 - - -
26/10:30pm 20.8 - - - - S 43 56 23 30 - - -
26/10:10pm 20.8 - - - - S 44 63 24 34 - - -
26/10:00pm 20.9 - - - - S 50 65 27 35 - - -
26/09:38pm 21.1 - - - - S 50 69 27 37 - - -
26/09:30pm 21.1 - - - - S 50 67 27 36 - - -
26/09:00pm 21.1 - - - - S 54 74 29 40 - - -
26/08:30pm 21.4 - - - - SSW 61 83 33 45 - - -
26/08:00pm 21.9 - - - - SSW 57 78 31 42 - - -
26/07:38pm 24.0 - - - - WSW 39 78 21 42 - - -
26/07:35pm 25.0 - - - - WNW 26 65 14 35 - - -
26/07:34pm 26.1 - - - - NW 22 61 12 33 - - -
26/07:30pm 28.3 - - - - NNW 20 28 11 15 - - -
26/07:00pm 28.2 - - - - NNW 20 24 11 13 - - -
26/06:30pm 27.2 - - - - NNE 22 26 12 14 - - -
26/06:00pm 25.9 - - - - NNE 28 33 15 18 - - -
26/05:30pm 26.8 - - - - NNE 24 28 13 15 - - -
26/05:00pm 27.5 - - - - NNE 20 26 11 14 - - -
26/04:30pm 30.6 - - - - N 19 30 10 16 - - -
26/04:00pm 30.0 - - - - N 20 28 11 15 - - -
26/03:30pm 29.8 - - - - NW 20 35 11 19 - - -

Latest Capital City Observations: Canberra | Sydney | Melbourne | Brisbane | Adelaide | Perth | Hobart | Darwin

Other formats

Comma delimited format used in spreadsheet applications
http://www.bom.gov.au/fwo/IDN60901/IDN60901.95766.axf

JavaScript Object Notation format (JSON) in row-major order
http://www.bom.gov.au/fwo/IDN60901/IDN60901.95766.json

Data quality

Most of these data are generated automatically and are frequently updated. Quality checks on data are not normally performed. It is possible for incorrect values to appear. Refer to information at About Latest Weather Observations and please check the disclaimer before using these data.